createdAt,value
2019-04-06T00:00:03.394Z,11.08
2019-04-06T00:02:33.930Z,10.78
2019-04-06T00:05:02.834Z,9.50
2019-04-06T00:07:32.073Z,10.78
2019-04-06T00:10:01.045Z,10.50
2019-04-06T00:12:29.958Z,10.48
2019-04-06T00:14:58.885Z,11.65
2019-04-06T00:17:28.028Z,6.25
2019-04-06T00:19:56.926Z,7.50
2019-04-06T00:22:25.841Z,11.63
2019-04-06T00:24:55.008Z,11.03
2019-04-06T00:27:24.792Z,10.10
2019-04-06T00:29:53.973Z,11.65
2019-04-06T00:32:33.346Z,9.25
2019-04-06T00:35:02.262Z,7.65
2019-04-06T00:37:31.325Z,11.73
2019-04-06T00:40:00.276Z,9.05
2019-04-06T00:42:29.217Z,12.15
2019-04-06T00:44:58.215Z,10.35
2019-04-06T00:47:27.317Z,12.35
2019-04-06T00:49:56.624Z,9.88
2019-04-06T00:52:25.618Z,9.80
2019-04-06T00:54:54.570Z,8.40
2019-04-06T00:57:23.512Z,9.55
2019-04-06T00:59:52.417Z,9.95
2019-04-06T01:02:21.400Z,9.95
2019-04-06T01:04:50.394Z,8.08
2019-04-06T01:07:19.485Z,5.90
2019-04-06T01:09:49.015Z,8.98
2019-04-06T01:12:17.913Z,8.10
2019-04-06T01:14:46.917Z,9.58
2019-04-06T01:17:15.873Z,10.30
2019-04-06T01:19:45.167Z,7.47
2019-04-06T01:22:14.086Z,8.98
2019-04-06T01:24:43.034Z,9.75
2019-04-06T01:27:12.174Z,10.48
2019-04-06T01:29:41.319Z,9.30
2019-04-06T01:32:10.283Z,8.48
2019-04-06T01:34:40.083Z,11.18
2019-04-06T01:37:08.969Z,7.58
2019-04-06T01:39:37.921Z,9.60
2019-04-06T01:42:06.827Z,10.38
2019-04-06T01:44:35.743Z,8.90
2019-04-06T01:47:04.685Z,8.45
2019-04-06T01:49:33.616Z,10.00
2019-04-06T01:52:02.576Z,8.68
2019-04-06T01:54:31.591Z,10.23
2019-04-06T01:57:00.768Z,7.67
2019-04-06T01:59:29.677Z,11.25
2019-04-06T02:02:00.169Z,11.83
2019-04-06T02:04:29.136Z,9.88
2019-04-06T02:06:58.050Z,12.60
2019-04-06T02:09:26.934Z,11.93
2019-04-06T02:11:56.886Z,13.93
2019-04-06T02:14:25.800Z,11.78
2019-04-06T02:16:54.765Z,10.85
2019-04-06T02:19:23.701Z,10.18
2019-04-06T02:21:52.590Z,12.13
2019-04-06T02:24:21.478Z,11.18
2019-04-06T02:26:50.523Z,11.57
2019-04-06T02:29:19.994Z,13.05
2019-04-06T02:32:02.518Z,9.18
2019-04-06T02:34:51.038Z,11.60
2019-04-06T02:37:30.362Z,9.88
2019-04-06T02:40:08.099Z,10.28
2019-04-06T02:42:38.658Z,12.15
2019-04-06T02:45:07.513Z,12.28
2019-04-06T02:47:36.637Z,13.15
2019-04-06T02:50:07.172Z,9.33
2019-04-06T02:52:36.065Z,10.08
2019-04-06T02:55:05.523Z,9.80
2019-04-06T02:57:34.470Z,11.55
2019-04-06T03:00:04.840Z,10.72
2019-04-06T03:02:33.941Z,11.20
2019-04-06T03:05:03.369Z,10.68
2019-04-06T03:07:32.582Z,10.38
2019-04-06T03:10:01.662Z,9.45
2019-04-06T03:12:31.011Z,12.15
2019-04-06T03:15:00.002Z,13.20
2019-04-06T03:17:28.933Z,11.22
2019-04-06T03:19:57.994Z,11.80
2019-04-06T03:22:26.872Z,11.43
2019-04-06T03:24:55.748Z,8.50
2019-04-06T03:27:24.905Z,11.88
2019-04-06T03:29:58.309Z,10.75
2019-04-06T03:32:24.386Z,15.20
2019-04-06T03:34:53.569Z,13.53
2019-04-06T03:37:22.671Z,14.50
2019-04-06T03:39:51.552Z,11.15
2019-04-06T03:42:20.488Z,11.65
2019-04-06T03:44:49.447Z,10.85
2019-04-06T03:47:18.470Z,11.90
2019-04-06T03:49:47.420Z,12.58
2019-04-06T03:52:16.286Z,14.55
2019-04-06T03:54:45.146Z,12.00
2019-04-06T03:57:16.809Z,15.38
2019-04-06T03:59:44.676Z,13.15
2019-04-06T04:02:13.443Z,11.50
2019-04-06T04:04:42.390Z,13.45
2019-04-06T04:07:12.415Z,12.23
2019-04-06T04:09:41.319Z,13.95
2019-04-06T04:12:10.282Z,19.50
2019-04-06T04:14:39.390Z,17.52
2019-04-06T04:17:09.389Z,15.30
2019-04-06T04:19:38.388Z,18.98
2019-04-06T04:22:07.251Z,13.58
2019-04-06T04:24:36.604Z,20.00
2019-04-06T04:27:05.654Z,17.48
2019-04-06T04:29:34.550Z,16.60
2019-04-06T04:32:03.506Z,21.05
2019-04-06T04:34:32.470Z,18.62
2019-04-06T04:37:01.355Z,17.48
2019-04-06T04:39:30.240Z,15.05
2019-04-06T04:41:59.173Z,20.55
2019-04-06T04:44:28.287Z,18.80
2019-04-06T04:46:57.363Z,18.90
2019-04-06T04:49:26.481Z,16.75
2019-04-06T04:51:55.347Z,15.75
2019-04-06T04:54:24.242Z,19.50
2019-04-06T04:56:53.175Z,20.37
2019-04-06T04:59:22.071Z,14.83
2019-04-06T05:01:50.944Z,17.40
2019-04-06T05:04:19.904Z,17.82
2019-04-06T05:06:48.782Z,21.65
2019-04-06T05:09:17.870Z,19.12
2019-04-06T05:11:48.967Z,15.60
2019-04-06T05:14:53.761Z,19.62
2019-04-06T05:17:23.268Z,17.45
2019-04-06T05:19:52.144Z,15.85
2019-04-06T05:22:21.021Z,14.85
2019-04-06T05:24:49.951Z,18.20
2019-04-06T05:27:19.820Z,15.88
2019-04-06T05:29:48.700Z,14.43
2019-04-06T05:32:17.639Z,15.53
2019-04-06T05:34:46.912Z,16.90
2019-04-06T05:37:15.910Z,17.80
2019-04-06T05:39:45.327Z,14.58
2019-04-06T05:42:14.196Z,16.73
2019-04-06T05:44:43.078Z,14.75
2019-04-06T05:47:13.090Z,18.12
2019-04-06T05:49:41.988Z,19.98
2019-04-06T05:52:10.840Z,17.20
2019-04-06T05:54:39.811Z,15.63
2019-04-06T05:57:08.987Z,15.55
2019-04-06T05:59:40.320Z,12.28
2019-04-06T06:02:09.930Z,18.77
2019-04-06T06:04:40.531Z,17.17
2019-04-06T06:07:12.858Z,23.10
2019-04-06T06:09:41.832Z,17.87
2019-04-06T06:12:12.663Z,18.17
2019-04-06T06:14:41.668Z,19.45
2019-04-06T06:17:10.775Z,18.80
2019-04-06T06:19:39.665Z,12.33
2019-04-06T06:22:08.615Z,19.52
2019-04-06T06:24:37.527Z,15.65
2019-04-06T06:27:11.257Z,17.05
2019-04-06T06:29:40.193Z,20.70
2019-04-06T06:32:09.278Z,17.23
2019-04-06T06:34:38.376Z,16.35
2019-04-06T06:37:07.751Z,14.85
2019-04-06T06:39:36.660Z,17.42
2019-04-06T06:42:05.536Z,16.57
2019-04-06T06:44:34.499Z,19.30
2019-04-06T06:47:03.379Z,15.93
2019-04-06T06:49:32.275Z,19.30
2019-04-06T06:52:01.439Z,17.60
2019-04-06T06:54:30.424Z,18.35
2019-04-06T06:57:01.441Z,15.38
2019-04-06T06:59:30.371Z,15.20
2019-04-06T07:01:59.266Z,17.10
2019-04-06T07:04:28.140Z,14.90
2019-04-06T07:06:57.084Z,16.95
2019-04-06T07:09:25.969Z,16.27
2019-04-06T07:11:55.064Z,15.55
2019-04-06T07:14:24.017Z,20.15
2019-04-06T07:16:52.897Z,17.73
2019-04-06T07:19:21.789Z,18.00
2019-04-06T07:21:50.725Z,16.67
2019-04-06T07:24:19.611Z,18.92
2019-04-06T07:26:48.524Z,16.30
2019-04-06T07:29:17.461Z,18.10
2019-04-06T07:31:47.072Z,18.32
2019-04-06T07:34:16.089Z,17.07
2019-04-06T07:36:45.841Z,18.95
2019-04-06T07:39:14.929Z,18.73
2019-04-06T07:41:43.902Z,17.17
2019-04-06T07:44:12.819Z,19.73
2019-04-06T07:46:41.787Z,16.87
2019-04-06T07:49:11.875Z,22.35
2019-04-06T07:51:40.810Z,12.90
2019-04-06T07:54:09.690Z,14.03
2019-04-06T07:56:38.559Z,17.30
2019-04-06T07:59:07.538Z,12.73
2019-04-06T08:01:36.473Z,13.85
2019-04-06T08:04:05.350Z,17.35
2019-04-06T08:06:34.311Z,13.32
2019-04-06T08:09:05.040Z,17.15
2019-04-06T08:11:33.923Z,13.22
2019-04-06T08:14:02.865Z,15.18
2019-04-06T08:16:31.744Z,13.83
2019-04-06T08:19:00.850Z,12.00
2019-04-06T08:21:30.316Z,11.83
2019-04-06T08:23:59.481Z,11.22
2019-04-06T08:26:28.399Z,10.45
2019-04-06T08:29:01.854Z,14.87
2019-04-06T08:31:28.139Z,12.65
2019-04-06T08:33:57.104Z,11.00
2019-04-06T08:36:26.065Z,12.65
2019-04-06T08:38:55.180Z,10.93
2019-04-06T08:41:24.171Z,10.23
2019-04-06T08:43:53.558Z,10.03
2019-04-06T08:46:22.652Z,8.55
2019-04-06T08:48:51.705Z,15.05
2019-04-06T08:51:20.740Z,11.05
2019-04-06T08:53:49.863Z,9.38
2019-04-06T08:56:19.121Z,13.45
2019-04-06T08:58:48.384Z,12.90
2019-04-06T09:01:17.320Z,10.72
2019-04-06T09:03:46.218Z,12.20
2019-04-06T09:06:15.241Z,8.80
2019-04-06T09:08:44.444Z,10.68
2019-04-06T09:11:13.566Z,11.30
2019-04-06T09:13:42.455Z,9.80
2019-04-06T09:16:11.978Z,9.78
2019-04-06T09:18:41.109Z,12.30
2019-04-06T09:21:09.998Z,10.58
2019-04-06T09:23:38.935Z,9.30
2019-04-06T09:26:07.932Z,11.88
2019-04-06T09:28:36.826Z,10.00
2019-04-06T09:31:05.766Z,11.10
2019-04-06T09:33:34.648Z,12.90
2019-04-06T09:36:03.566Z,11.30
2019-04-06T09:38:32.495Z,11.20
2019-04-06T09:41:01.645Z,13.68
2019-04-06T09:43:30.855Z,15.48
2019-04-06T09:46:10.194Z,10.65
2019-04-06T09:48:40.719Z,12.05
2019-04-06T09:51:11.173Z,10.20
2019-04-06T09:54:05.690Z,10.23
2019-04-06T09:56:36.357Z,11.10
2019-04-06T09:59:09.609Z,10.75
2019-04-06T10:01:55.943Z,12.82
2019-04-06T10:04:32.099Z,10.15
2019-04-06T10:07:08.791Z,7.78
2019-04-06T10:09:55.858Z,7.62
2019-04-06T10:12:32.212Z,10.88
2019-04-06T10:15:05.746Z,11.65
2019-04-06T10:17:39.238Z,10.25
2019-04-06T10:20:13.515Z,8.88
2019-04-06T10:23:00.151Z,13.08
2019-04-06T10:25:48.611Z,10.15
2019-04-06T10:28:19.369Z,10.75
2019-04-06T10:30:58.492Z,7.90
2019-04-06T10:33:34.424Z,11.20
2019-04-06T10:38:57.108Z,11.22
2019-04-06T10:41:28.159Z,8.43
2019-04-06T10:44:10.860Z,7.12
2019-04-06T10:46:57.940Z,11.57
2019-04-06T10:49:40.687Z,10.80
2019-04-06T10:52:11.207Z,10.25
2019-04-06T10:54:58.334Z,11.70
2019-04-06T10:57:45.542Z,13.38
2019-04-06T11:00:25.674Z,12.58
2019-04-06T11:03:02.303Z,10.38
2019-04-06T11:05:41.952Z,12.50
2019-04-06T11:08:29.120Z,13.98
2019-04-06T11:11:05.577Z,10.03
2019-04-06T11:13:52.699Z,11.55
2019-04-06T11:16:39.021Z,11.22
2019-04-06T11:19:10.759Z,14.98
2019-04-06T11:21:57.454Z,12.30
2019-04-06T11:24:31.534Z,15.13
2019-04-06T11:27:10.922Z,13.30
2019-04-06T11:29:50.610Z,14.05
2019-04-06T11:32:30.160Z,13.55
2019-04-06T11:35:06.967Z,12.93
2019-04-06T11:37:43.508Z,12.18
2019-04-06T11:40:30.614Z,12.15
2019-04-06T11:43:17.781Z,10.08
2019-04-06T11:46:04.989Z,11.45
2019-04-06T11:48:52.023Z,12.33
2019-04-06T11:51:31.980Z,11.48
2019-04-06T11:54:18.904Z,10.78
2019-04-06T11:56:52.345Z,12.50
2019-04-06T11:59:22.904Z,14.53
2019-04-06T12:02:10.074Z,10.65
2019-04-06T12:04:57.512Z,13.80
2019-04-06T12:07:34.056Z,12.53
2019-04-06T12:10:07.865Z,9.15
2019-04-06T12:12:44.128Z,12.25
2019-04-06T12:15:14.916Z,12.98
2019-04-06T12:17:45.608Z,10.13
2019-04-06T12:20:25.076Z,11.30
2019-04-06T12:22:55.570Z,11.63
2019-04-06T12:25:35.160Z,11.20
2019-04-06T12:28:20.782Z,13.35
2019-04-06T12:30:50.321Z,12.18
2019-04-06T12:33:20.868Z,12.65
2019-04-06T12:36:00.337Z,12.82
2019-04-06T12:38:46.976Z,16.62
2019-04-06T12:41:17.604Z,15.28
2019-04-06T12:44:04.560Z,14.45
2019-04-06T12:46:44.256Z,11.65
2019-04-06T12:49:33.193Z,11.63
2019-04-06T12:52:03.915Z,13.25
2019-04-06T12:54:52.566Z,13.08
2019-04-06T12:57:41.745Z,14.63
2019-04-06T13:00:27.981Z,16.25
2019-04-06T13:03:01.352Z,13.03
2019-04-06T13:05:48.221Z,13.35
2019-04-06T13:08:18.957Z,12.00
2019-04-06T13:11:05.819Z,12.70
2019-04-06T13:13:42.526Z,12.45
2019-04-06T13:16:15.793Z,15.13
2019-04-06T13:19:02.787Z,12.30
2019-04-06T13:21:33.323Z,16.75
2019-04-06T13:24:06.457Z,14.35
2019-04-06T13:26:40.442Z,12.50
2019-04-06T13:29:31.489Z,13.30
2019-04-06T13:32:11.222Z,14.23
2019-04-06T13:34:58.275Z,12.65
2019-04-06T13:37:29.070Z,13.60
2019-04-06T13:40:03.231Z,11.00
2019-04-06T13:42:43.811Z,10.15
2019-04-06T13:45:17.647Z,12.95
2019-04-06T13:47:50.626Z,9.80
2019-04-06T13:50:24.049Z,11.57
2019-04-06T13:53:10.491Z,12.43
2019-04-06T13:55:41.082Z,10.15
2019-04-06T13:58:11.535Z,10.20
2019-04-06T14:00:45.114Z,11.90
2019-04-06T14:03:18.625Z,13.58
2019-04-06T14:06:07.552Z,12.75
2019-04-06T14:08:40.773Z,11.10
2019-04-06T14:11:17.510Z,12.13
2019-04-06T14:14:03.150Z,10.93
2019-04-06T14:16:33.758Z,14.40
2019-04-06T14:19:21.999Z,11.88
2019-04-06T14:21:58.660Z,11.90
2019-04-06T14:24:46.129Z,9.58
2019-04-06T14:27:19.827Z,11.38
2019-04-06T14:29:53.560Z,17.45
2019-04-06T14:32:33.239Z,14.93
2019-04-06T14:35:19.722Z,12.13
2019-04-06T14:38:06.989Z,14.58
2019-04-06T14:40:41.943Z,9.63
2019-04-06T14:43:15.193Z,13.13
2019-04-06T14:45:51.279Z,14.93
2019-04-06T14:48:36.920Z,15.80
2019-04-06T14:51:24.370Z,12.65
2019-04-06T14:54:00.657Z,12.82
2019-04-06T14:56:31.153Z,13.45
2019-04-06T14:59:04.358Z,12.47
2019-04-06T15:01:57.909Z,13.32
2019-04-06T15:04:22.470Z,12.45
2019-04-06T15:06:53.501Z,10.98
2019-04-06T15:09:24.457Z,9.08
2019-04-06T15:12:04.192Z,11.60
2019-04-06T15:14:37.946Z,10.13
2019-04-06T15:17:17.981Z,11.22
2019-04-06T15:19:48.740Z,10.58
2019-04-06T15:22:35.647Z,13.20
2019-04-06T15:25:08.012Z,15.88
2019-04-06T15:27:41.834Z,14.23
2019-04-06T15:30:29.513Z,11.00
2019-04-06T15:33:16.567Z,14.20
2019-04-06T15:35:47.382Z,10.50
2019-04-06T15:38:18.121Z,15.03
2019-04-06T15:40:55.711Z,11.88
2019-04-06T15:43:35.161Z,13.18
2019-04-06T15:46:22.046Z,14.53
2019-04-06T15:48:52.752Z,11.93
2019-04-06T15:51:40.399Z,11.35
2019-04-06T15:54:17.719Z,12.28
2019-04-06T15:57:04.572Z,11.83
2019-04-06T15:59:51.302Z,9.73
2019-04-06T16:02:38.975Z,9.68
2019-04-06T16:05:09.925Z,11.18
2019-04-06T16:07:40.693Z,12.50
2019-04-06T16:10:21.481Z,10.28
2019-04-06T16:13:04.902Z,12.95
2019-04-06T16:15:52.336Z,13.78
2019-04-06T16:18:23.089Z,12.78
2019-04-06T16:20:58.833Z,12.03
2019-04-06T16:23:38.150Z,11.12
2019-04-06T16:26:08.749Z,11.00
2019-04-06T16:28:41.646Z,11.88
2019-04-06T16:31:30.218Z,11.97
2019-04-06T16:34:01.410Z,14.53
2019-04-06T16:36:48.845Z,14.90
2019-04-06T16:39:35.989Z,12.82
2019-04-06T16:42:09.489Z,13.40
2019-04-06T16:44:58.978Z,12.73
2019-04-06T16:47:30.412Z,13.35
2019-04-06T16:50:04.708Z,16.07
2019-04-06T16:52:50.519Z,11.75
2019-04-06T16:55:38.109Z,13.32
2019-04-06T16:58:09.671Z,15.38
2019-04-06T17:00:40.703Z,12.53
2019-04-06T17:03:29.791Z,15.32
2019-04-06T17:06:17.784Z,12.03
2019-04-06T17:08:49.683Z,15.55
2019-04-06T17:11:20.764Z,13.15
2019-04-06T17:13:52.161Z,16.77
2019-04-06T17:16:29.633Z,13.00
2019-04-06T17:19:07.036Z,10.55
2019-04-06T17:21:38.268Z,8.80
2019-04-06T17:24:12.797Z,14.20
2019-04-06T17:26:46.035Z,15.72
2019-04-06T17:29:28.212Z,15.23
2019-04-06T17:32:05.194Z,15.48
2019-04-06T17:34:54.263Z,15.03
2019-04-06T17:37:33.621Z,19.23
2019-04-06T17:40:20.413Z,14.58
2019-04-06T17:42:57.158Z,15.85
2019-04-06T17:45:30.913Z,17.23
2019-04-06T17:48:04.487Z,16.40
2019-04-06T17:50:53.353Z,15.25
2019-04-06T17:53:33.183Z,14.73
2019-04-06T17:56:09.431Z,16.77
2019-04-06T17:58:55.228Z,17.32
2019-04-06T18:01:41.096Z,23.42
2019-04-06T18:04:14.227Z,19.30
2019-04-06T18:06:44.740Z,21.82
2019-04-06T18:09:19.703Z,22.98
2019-04-06T18:11:50.691Z,21.10
2019-04-06T18:14:19.956Z,21.27
2019-04-06T18:16:49.405Z,22.20
2019-04-06T18:19:18.295Z,19.48
2019-04-06T18:21:47.169Z,22.30
2019-04-06T18:24:16.899Z,16.32
2019-04-06T18:26:46.452Z,20.20
2019-04-06T18:29:17.254Z,17.92
2019-04-06T18:31:53.861Z,27.30
2019-04-06T18:34:22.890Z,23.95
2019-04-06T18:36:56.754Z,21.62
2019-04-06T18:39:27.733Z,23.80
2019-04-06T18:41:56.680Z,22.80
2019-04-06T18:44:25.671Z,19.87
2019-04-06T18:46:55.027Z,23.20
2019-04-06T18:49:27.591Z,19.48
2019-04-06T18:52:02.892Z,20.85
2019-04-06T18:55:11.841Z,26.85
2019-04-06T18:58:12.529Z,21.52
2019-04-06T19:04:27.377Z,20.97
2019-04-06T19:05:32.977Z,19.23
2019-04-06T19:08:09.578Z,23.32
2019-04-06T19:10:52.643Z,26.48
2019-04-06T19:16:06.122Z,22.22
2019-04-06T19:18:49.348Z,22.15
2019-04-06T19:21:37.697Z,17.55
2019-04-06T19:24:12.382Z,20.45
2019-04-06T19:26:43.417Z,21.25
2019-04-06T19:29:17.291Z,20.08
2019-04-06T19:35:31.422Z,19.77
2019-04-06T19:40:33.538Z,24.40
2019-04-06T19:47:07.631Z,16.73
2019-04-06T19:48:53.662Z,26.20
2019-04-06T19:51:25.179Z,30.23
2019-04-06T19:53:53.901Z,21.75
2019-04-06T19:56:30.003Z,27.60
2019-04-06T19:58:56.756Z,23.73
2019-04-06T20:01:28.279Z,29.30
2019-04-06T20:03:57.982Z,26.35
2019-04-06T20:06:29.895Z,27.15
2019-04-06T20:08:59.731Z,30.43
2019-04-06T20:11:32.248Z,30.55
2019-04-06T20:14:06.171Z,22.02
2019-04-06T20:16:33.380Z,28.67
2019-04-06T20:19:22.413Z,33.40
2019-04-06T20:21:41.078Z,29.20
2019-04-06T20:24:12.745Z,24.57
2019-04-06T20:26:41.946Z,29.05
2019-04-06T20:29:11.601Z,32.35
2019-04-06T20:31:42.983Z,26.52
2019-04-06T20:34:15.469Z,31.75
2019-04-06T20:36:45.645Z,30.25
2019-04-06T20:39:18.944Z,29.15
2019-04-06T20:41:50.276Z,35.73
2019-04-06T20:44:20.308Z,28.20
2019-04-06T20:46:50.609Z,33.67
2019-04-06T20:49:20.873Z,28.10
2019-04-06T20:51:52.369Z,26.37
2019-04-06T20:54:22.018Z,30.23
2019-04-06T20:56:56.209Z,33.55
2019-04-06T20:59:27.418Z,27.50
2019-04-06T21:01:58.903Z,23.63
2019-04-06T21:04:30.875Z,26.77
2019-04-06T21:07:00.160Z,24.23
2019-04-06T21:09:30.567Z,39.23
2019-04-06T21:12:00.656Z,31.05
2019-04-06T21:14:30.610Z,27.48
2019-04-06T21:17:00.374Z,27.87
2019-04-06T21:19:32.808Z,32.88
2019-04-06T21:22:04.371Z,25.95
2019-04-06T21:24:37.820Z,24.63
2019-04-06T21:27:12.491Z,24.30
2019-04-06T21:32:13.075Z,24.07
2019-04-06T21:34:42.693Z,30.88
2019-04-06T21:37:13.411Z,29.55
2019-04-06T21:39:45.539Z,31.80
2019-04-06T21:42:22.436Z,30.80
2019-04-06T21:44:51.967Z,25.80
2019-04-06T21:47:21.957Z,26.77
2019-04-06T21:49:52.875Z,31.20
2019-04-06T21:52:23.908Z,32.78
2019-04-06T21:54:56.891Z,25.05
2019-04-06T21:57:26.520Z,26.80
2019-04-06T21:59:56.364Z,26.75
2019-04-06T22:02:26.010Z,28.27
2019-04-06T22:04:55.547Z,30.77
2019-04-06T22:07:30.998Z,24.37
2019-04-06T22:10:05.086Z,30.17
2019-04-06T22:12:35.118Z,25.37
2019-04-06T22:15:06.117Z,29.15
2019-04-06T22:17:38.926Z,25.95
2019-04-06T22:20:08.587Z,23.87
2019-04-06T22:22:38.268Z,31.68
2019-04-06T22:25:11.250Z,28.90
2019-04-06T22:27:42.613Z,32.33
2019-04-06T22:30:12.309Z,27.75
2019-04-06T22:32:43.446Z,25.77
2019-04-06T22:35:14.837Z,29.12
2019-04-06T22:37:44.383Z,27.17
2019-04-06T22:40:15.338Z,25.45
2019-04-06T22:42:45.360Z,23.65
2019-04-06T22:45:19.568Z,21.95
2019-04-06T22:47:49.575Z,20.30
2019-04-06T22:50:19.040Z,20.37
2019-04-06T22:52:57.128Z,22.42
2019-04-06T22:55:32.353Z,26.85
2019-04-06T22:57:58.959Z,22.93
2019-04-06T23:00:33.653Z,23.95
2019-04-06T23:05:38.264Z,20.20
2019-04-06T23:08:08.105Z,17.67
2019-04-06T23:10:39.681Z,19.65
2019-04-06T23:13:09.190Z,16.23
2019-04-06T23:15:39.380Z,17.10
2019-04-06T23:18:09.615Z,14.58
2019-04-06T23:20:42.700Z,11.15
2019-04-06T23:23:14.365Z,12.07
2019-04-06T23:25:44.131Z,13.80
2019-04-06T23:28:13.126Z,13.50
2019-04-06T23:30:44.083Z,18.82
2019-04-06T23:33:13.342Z,14.90
2019-04-06T23:35:42.295Z,13.60
2019-04-06T23:38:11.296Z,15.18
2019-04-06T23:40:40.374Z,17.52
2019-04-06T23:43:09.708Z,16.90
2019-04-06T23:45:39.434Z,16.05
2019-04-06T23:48:08.494Z,19.92
2019-04-06T23:50:37.364Z,15.58
2019-04-06T23:53:06.776Z,16.25
2019-04-06T23:55:35.827Z,21.20
2019-04-06T23:58:04.706Z,13.68
